Maritime Instructor — WCW8625 — position and weather

sailwx.info

Track history (hours):
 
Tides and Currents Weather Stations Pressure Air Temp Water Temp Dewpoint Dewpoint Depression Visibility Wind Speed Wind Dir Waves Ship Positions

Maritime Instructor

Owner: WASHINGTON, STATE OF, SEATTLE, WA. More information available from US FCC via Universal Licensing System and Coast Guard Vessel Documentation Center.

Last reported at 2015-Mar-21 00:33 UTC. Time now 2015-Mar-29 01:06 UTC.
Position N 47°40' W 122°23'.
Warning: this ship's position is 8 days out of date.

Length 30 m; draft 2 m.

Type: Ship. MMSI: 303556000.

Date/timePositionNaut miles runAvg speedWind from/ knotsBaromVisibWave heightAir tempDewpointWater temp
2015-Mar-21 00:33N 47°40' W 122°23'0 6.2
2015-Mar-21 00:31N 47°40' W 122°23'1 0.8
2015-Mar-20 23:33N 47°40' W 122°24'0 0.5
2015-Mar-20 23:31N 47°40' W 122°24'2 1.9
2015-Mar-20 22:33N 47°38' W 122°25'0 5.9
2015-Mar-20 22:30N 47°38' W 122°25'1 0.8
2015-Mar-20 21:33N 47°38' W 122°24'0 7.6
2015-Mar-20 21:30N 47°38' W 122°25'2 2.3
2015-Mar-20 20:33N 47°40' W 122°24'0 0.1
2015-Mar-20 20:30N 47°40' W 122°24'0 0.4
2015-Mar-20 19:33N 47°40' W 122°23'0 4.3
2015-Mar-20 19:29N 47°40' W 122°24'  
2015-Mar-18 01:01N 47°40' W 122°23'1 2.0
2015-Mar-18 00:33N 47°40' W 122°24'0 0.1
2015-Mar-18 00:31N 47°40' W 122°24'4 4.6
2015-Mar-17 23:33N 47°42' W 122°29'0 5.6
2015-Mar-17 23:31N 47°42' W 122°30'5 4.9
2015-Mar-17 22:33N 47°42' W 122°36'0 5.9
2015-Mar-17 22:30N 47°42' W 122°36'1 0.7
2015-Mar-17 21:34N 47°42' W 122°37'2 6.2
2015-Mar-17 21:15N 47°41' W 122°35'0 0.2
2015-Mar-17 20:33N 47°41' W 122°35'0 0.5
2015-Mar-17 20:31N 47°41' W 122°35'0 0.2
2015-Mar-17 19:33N 47°41' W 122°35'0 0.0
2015-Mar-17 19:31N 47°41' W 122°35'7 7.6
2015-Mar-17 18:33N 47°40' W 122°25'0 6.8
2015-Mar-17 18:31N 47°40' W 122°24'1 1.5
2015-Mar-17 17:33N 47°40' W 122°23'0 0.0
2015-Mar-17 17:30N 47°40' W 122°23'0 0.0
2015-Mar-17 16:34N 47°40' W 122°23'0 0.1
2015-Mar-17 16:29N 47°40' W 122°23'  
2015-Mar-14 01:33N 47°40' W 122°23'0 4.7
2015-Mar-14 01:32N 47°40' W 122°23'2 2.2
2015-Mar-14 00:33N 47°40' W 122°26'0 8.4
2015-Mar-14 00:32N 47°40' W 122°26'6 5.8
2015-Mar-13 23:32N 47°35' W 122°22'1 2.7
2015-Mar-13 23:01N 47°37' W 122°21'4 9.5
2015-Mar-13 22:33N 47°39' W 122°26'111.0
2015-Mar-13 22:31N 47°40' W 122°27'2 2.2
2015-Mar-13 21:33N 47°40' W 122°23'0 1.2
2015-Mar-13 21:31N 47°40' W 122°23'  
2015-Mar-11 02:18N 47°40' W 122°23'0 0.1
2015-Mar-11 02:14N 47°40' W 122°23'2 2.9
2015-Mar-11 01:33N 47°38' W 122°20'097.4
2015-Mar-11 01:33N 47°38' W 122°20'3 3.0
2015-Mar-11 00:33N 47°38' W 122°16'  
Track history (hours):
 
Tides and Currents Weather Stations Pressure Air Temp Water Temp Dewpoint Dewpoint Depression Visibility Wind Speed Wind Dir Waves Ship Positions

Maritime Instructor

Owner: WASHINGTON, STATE OF, SEATTLE, WA. More information available from US FCC via Universal Licensing System and Coast Guard Vessel Documentation Center.

Last reported at 2015-Mar-21 00:33 UTC. Time now 2015-Mar-29 01:06 UTC.
Position N 47°40' W 122°23'.
Warning: this ship's position is 8 days out of date.

Length 30 m; draft 2 m.

Type: Ship. MMSI: 303556000.

Date/timePositionNaut miles runAvg speedWind from/ knotsBaromVisibWave heightAir tempDewpointWater temp
2015-Mar-21 00:33N 47°40' W 122°23'0 6.2
2015-Mar-21 00:31N 47°40' W 122°23'1 0.8
2015-Mar-20 23:33N 47°40' W 122°24'0 0.5
2015-Mar-20 23:31N 47°40' W 122°24'2 1.9
2015-Mar-20 22:33N 47°38' W 122°25'0 5.9
2015-Mar-20 22:30N 47°38' W 122°25'1 0.8
2015-Mar-20 21:33N 47°38' W 122°24'0 7.6
2015-Mar-20 21:30N 47°38' W 122°25'2 2.3
2015-Mar-20 20:33N 47°40' W 122°24'0 0.1
2015-Mar-20 20:30N 47°40' W 122°24'0 0.4
2015-Mar-20 19:33N 47°40' W 122°23'0 4.3
2015-Mar-20 19:29N 47°40' W 122°24'  
2015-Mar-18 01:01N 47°40' W 122°23'1 2.0
2015-Mar-18 00:33N 47°40' W 122°24'0 0.1
2015-Mar-18 00:31N 47°40' W 122°24'4 4.6
2015-Mar-17 23:33N 47°42' W 122°29'0 5.6
2015-Mar-17 23:31N 47°42' W 122°30'5 4.9
2015-Mar-17 22:33N 47°42' W 122°36'0 5.9
2015-Mar-17 22:30N 47°42' W 122°36'1 0.7
2015-Mar-17 21:34N 47°42' W 122°37'2 6.2
2015-Mar-17 21:15N 47°41' W 122°35'0 0.2
2015-Mar-17 20:33N 47°41' W 122°35'0 0.5
2015-Mar-17 20:31N 47°41' W 122°35'0 0.2
2015-Mar-17 19:33N 47°41' W 122°35'0 0.0
2015-Mar-17 19:31N 47°41' W 122°35'7 7.6
2015-Mar-17 18:33N 47°40' W 122°25'0 6.8
2015-Mar-17 18:31N 47°40' W 122°24'1 1.5
2015-Mar-17 17:33N 47°40' W 122°23'0 0.0
2015-Mar-17 17:30N 47°40' W 122°23'0 0.0
2015-Mar-17 16:34N 47°40' W 122°23'0 0.1
2015-Mar-17 16:29N 47°40' W 122°23'  
2015-Mar-14 01:33N 47°40' W 122°23'0 4.7
2015-Mar-14 01:32N 47°40' W 122°23'2 2.2
2015-Mar-14 00:33N 47°40' W 122°26'0 8.4
2015-Mar-14 00:32N 47°40' W 122°26'6 5.8
2015-Mar-13 23:32N 47°35' W 122°22'1 2.7
2015-Mar-13 23:01N 47°37' W 122°21'4 9.5
2015-Mar-13 22:33N 47°39' W 122°26'111.0
2015-Mar-13 22:31N 47°40' W 122°27'2 2.2
2015-Mar-13 21:33N 47°40' W 122°23'0 1.2
2015-Mar-13 21:31N 47°40' W 122°23'  
2015-Mar-11 02:18N 47°40' W 122°23'0 0.1
2015-Mar-11 02:14N 47°40' W 122°23'2 2.9
2015-Mar-11 01:33N 47°38' W 122°20'097.4
2015-Mar-11 01:33N 47°38' W 122°20'3 3.0
2015-Mar-11 00:33N 47°38' W 122°16'  

Dump ship's entire track history